sensor_id;sensor_type;location;lat;lon;timestamp;pressure;altitude;pressure_sealevel;temperature;humidity
71149;BME280;59072;42.144;25.200;2022-07-29T00:01:49;100112.44;;;23.05;55.30
71149;BME280;59072;42.144;25.200;2022-07-29T00:04:15;100125.81;;;23.01;55.67
71149;BME280;59072;42.144;25.200;2022-07-29T00:06:40;100124.72;;;23.16;55.28
71149;BME280;59072;42.144;25.200;2022-07-29T00:09:06;100121.06;;;23.62;53.97
71149;BME280;59072;42.144;25.200;2022-07-29T00:11:32;100116.44;;;23.49;54.58
71149;BME280;59072;42.144;25.200;2022-07-29T00:13:58;100111.97;;;23.95;53.35
71149;BME280;59072;42.144;25.200;2022-07-29T00:16:23;100104.53;;;23.86;53.63
71149;BME280;59072;42.144;25.200;2022-07-29T00:18:48;100115.81;;;22.97;56.42
71149;BME280;59072;42.144;25.200;2022-07-29T00:21:14;100083.75;;;22.80;56.38
71149;BME280;59072;42.144;25.200;2022-07-29T00:23:40;100090.44;;;23.29;55.28
71149;BME280;59072;42.144;25.200;2022-07-29T00:26:05;100078.94;;;22.91;56.51
71149;BME280;59072;42.144;25.200;2022-07-29T00:28:30;100098.66;;;22.69;58.18
71149;BME280;59072;42.144;25.200;2022-07-29T00:30:56;100085.56;;;22.71;58.16
71149;BME280;59072;42.144;25.200;2022-07-29T00:33:21;100090.00;;;22.94;57.77
71149;BME280;59072;42.144;25.200;2022-07-29T00:35:48;100041.66;;;22.50;58.12
71149;BME280;59072;42.144;25.200;2022-07-29T00:38:15;100082.56;;;23.00;57.79
71149;BME280;59072;42.144;25.200;2022-07-29T00:40:42;100082.75;;;22.90;57.92
71149;BME280;59072;42.144;25.200;2022-07-29T00:43:08;100104.84;;;23.02;57.59
71149;BME280;59072;42.144;25.200;2022-07-29T00:45:34;100119.69;;;23.10;57.35
71149;BME280;59072;42.144;25.200;2022-07-29T00:47:59;100113.75;;;23.21;57.60
71149;BME280;59072;42.144;25.200;2022-07-29T00:50:25;100113.63;;;23.40;56.79
71149;BME280;59072;42.144;25.200;2022-07-29T00:52:52;100109.19;;;23.31;57.02
71149;BME280;59072;42.144;25.200;2022-07-29T00:55:18;100105.66;;;23.16;57.39
71149;BME280;59072;42.144;25.200;2022-07-29T00:57:45;100101.94;;;23.12;58.07
71149;BME280;59072;42.144;25.200;2022-07-29T01:00:24;100125.06;;;22.96;57.95
71149;BME280;59072;42.144;25.200;2022-07-29T01:02:49;100120.63;;;23.00;58.50
71149;BME280;59072;42.144;25.200;2022-07-29T01:05:20;100109.59;;;23.38;57.21
71149;BME280;59072;42.144;25.200;2022-07-29T01:07:49;100105.81;;;22.78;58.75
71149;BME280;59072;42.144;25.200;2022-07-29T01:10:15;100107.28;;;23.03;58.60
71149;BME280;59072;42.144;25.200;2022-07-29T01:12:43;100106.78;;;23.15;58.36
71149;BME280;59072;42.144;25.200;2022-07-29T01:15:10;100106.59;;;23.25;58.06
71149;BME280;59072;42.144;25.200;2022-07-29T01:20:27;100116.22;;;23.45;57.43
71149;BME280;59072;42.144;25.200;2022-07-29T01:26:21;100110.06;;;22.84;58.55
71149;BME280;59072;42.144;25.200;2022-07-29T01:29:11;100106.00;;;22.82;59.01
71149;BME280;59072;42.144;25.200;2022-07-29T01:34:25;100064.38;;;23.14;57.69
71149;BME280;59072;42.144;25.200;2022-07-29T01:37:04;100098.22;;;22.61;59.78
71149;BME280;59072;42.144;25.200;2022-07-29T01:39:34;100098.66;;;22.36;60.40
71149;BME280;59072;42.144;25.200;2022-07-29T01:42:15;100071.59;;;22.44;60.57
71149;BME280;59072;42.144;25.200;2022-07-29T01:48:02;100097.94;;;22.11;61.10
71149;BME280;59072;42.144;25.200;2022-07-29T01:50:37;100091.13;;;21.95;61.64
71149;BME280;59072;42.144;25.200;2022-07-29T01:53:08;100085.22;;;22.06;61.18
71149;BME280;59072;42.144;25.200;2022-07-29T01:55:39;100088.75;;;21.88;61.60
71149;BME280;59072;42.144;25.200;2022-07-29T01:58:06;100068.72;;;21.84;61.53
71149;BME280;59072;42.144;25.200;2022-07-29T02:00:34;100064.84;;;22.23;60.25
71149;BME280;59072;42.144;25.200;2022-07-29T02:03:08;100063.50;;;22.25;60.16
71149;BME280;59072;42.144;25.200;2022-07-29T02:05:35;100076.44;;;21.77;62.34
71149;BME280;59072;42.144;25.200;2022-07-29T02:08:04;100076.06;;;21.40;63.55
71149;BME280;59072;42.144;25.200;2022-07-29T02:10:33;100082.91;;;21.38;63.69
71149;BME280;59072;42.144;25.200;2022-07-29T02:13:01;100076.44;;;21.77;62.19
71149;BME280;59072;42.144;25.200;2022-07-29T02:15:28;100086.34;;;22.05;61.11
71149;BME280;59072;42.144;25.200;2022-07-29T02:18:02;100076.44;;;21.77;62.28
71149;BME280;59072;42.144;25.200;2022-07-29T02:20:30;100083.25;;;21.93;61.60
71149;BME280;59072;42.144;25.200;2022-07-29T02:22:57;100077.69;;;22.03;61.46
71149;BME280;59072;42.144;25.200;2022-07-29T02:25:24;100090.00;;;21.77;62.42
71149;BME280;59072;42.144;25.200;2022-07-29T02:27:52;100074.94;;;21.46;63.88
71149;BME280;59072;42.144;25.200;2022-07-29T02:30:21;100079.16;;;21.34;64.52
71149;BME280;59072;42.144;25.200;2022-07-29T02:32:47;100075.44;;;21.24;64.99
71149;BME280;59072;42.144;25.200;2022-07-29T02:35:15;100086.41;;;21.14;65.74
71149;BME280;59072;42.144;25.200;2022-07-29T02:37:43;100055.50;;;21.15;64.93
71149;BME280;59072;42.144;25.200;2022-07-29T02:40:14;100079.44;;;21.32;64.40
71149;BME280;59072;42.144;25.200;2022-07-29T02:42:42;100067.25;;;21.30;64.35
71149;BME280;59072;42.144;25.200;2022-07-29T02:45:10;100071.81;;;21.10;65.37
71149;BME280;59072;42.144;25.200;2022-07-29T02:47:39;100086.50;;;20.80;66.35
71149;BME280;59072;42.144;25.200;2022-07-29T02:50:17;100066.81;;;20.74;66.18
71149;BME280;59072;42.144;25.200;2022-07-29T02:53:02;100081.81;;;21.15;64.76
71149;BME280;59072;42.144;25.200;2022-07-29T02:56:04;100076.16;;;21.35;63.74
71149;BME280;59072;42.144;25.200;2022-07-29T02:58:39;100086.38;;;21.19;63.59
71149;BME280;59072;42.144;25.200;2022-07-29T03:01:13;100086.47;;;20.85;64.61
71149;BME280;59072;42.144;25.200;2022-07-29T03:03:42;100082.13;;;20.55;65.50
71149;BME280;59072;42.144;25.200;2022-07-29T03:06:09;100067.59;;;20.45;66.05
71149;BME280;59072;42.144;25.200;2022-07-29T03:08:36;100076.31;;;20.96;64.42
71149;BME280;59072;42.144;25.200;2022-07-29T03:11:03;100066.44;;;20.52;65.28
71149;BME280;59072;42.144;25.200;2022-07-29T03:13:30;100083.75;;;20.85;64.67
71149;BME280;59072;42.144;25.200;2022-07-29T03:15:57;100089.22;;;20.80;65.31
71149;BME280;59072;42.144;25.200;2022-07-29T03:18:23;100093.31;;;21.06;63.33
71149;BME280;59072;42.144;25.200;2022-07-29T03:20:49;100089.94;;;20.91;63.97
71149;BME280;59072;42.144;25.200;2022-07-29T03:23:22;100101.44;;;20.77;64.04
71149;BME280;59072;42.144;25.200;2022-07-29T03:25:48;100094.59;;;20.56;64.19
71149;BME280;59072;42.144;25.200;2022-07-29T03:28:14;100101.06;;;20.60;64.47
71149;BME280;59072;42.144;25.200;2022-07-29T03:30:40;100114.63;;;20.60;64.66
71149;BME280;59072;42.144;25.200;2022-07-29T03:33:05;100111.00;;;20.70;63.71
71149;BME280;59072;42.144;25.200;2022-07-29T03:35:31;100093.72;;;20.31;64.92
71149;BME280;59072;42.144;25.200;2022-07-29T03:37:57;100113.66;;;20.40;64.57
71149;BME280;59072;42.144;25.200;2022-07-29T03:40:29;100101.59;;;20.57;62.83
71149;BME280;59072;42.144;25.200;2022-07-29T03:42:57;100112.13;;;20.63;62.88
71149;BME280;59072;42.144;25.200;2022-07-29T03:45:25;100109.38;;;20.69;62.54
71149;BME280;59072;42.144;25.200;2022-07-29T03:47:56;100112.81;;;20.79;62.23
71149;BME280;59072;42.144;25.200;2022-07-29T03:50:22;100113.34;;;20.81;62.06
71149;BME280;59072;42.144;25.200;2022-07-29T03:52:48;100120.75;;;21.00;60.67
71149;BME280;59072;42.144;25.200;2022-07-29T03:55:15;100114.97;;;20.82;61.05
71149;BME280;59072;42.144;25.200;2022-07-29T03:57:42;100117.56;;;20.93;60.55
71149;BME280;59072;42.144;25.200;2022-07-29T04:00:08;100107.69;;;21.02;59.96
71149;BME280;59072;42.144;25.200;2022-07-29T04:02:34;100122.88;;;21.03;60.60
71149;BME280;59072;42.144;25.200;2022-07-29T04:05:00;100124.56;;;20.99;60.71
71149;BME280;59072;42.144;25.200;2022-07-29T04:07:26;100120.63;;;21.10;60.61
71149;BME280;59072;42.144;25.200;2022-07-29T04:09:51;100108.28;;;20.99;60.51
71149;BME280;59072;42.144;25.200;2022-07-29T04:12:17;100126.22;;;21.48;59.40
71149;BME280;59072;42.144;25.200;2022-07-29T04:14:42;100128.19;;;21.61;59.57
71149;BME280;59072;42.144;25.200;2022-07-29T04:17:08;100132.16;;;21.50;59.52
71149;BME280;59072;42.144;25.200;2022-07-29T04:19:33;100133.91;;;21.36;60.96
71149;BME280;59072;42.144;25.200;2022-07-29T04:22:00;100132.63;;;21.04;62.12
71149;BME280;59072;42.144;25.200;2022-07-29T04:24:26;100138.63;;;21.01;61.43
71149;BME280;59072;42.144;25.200;2022-07-29T04:26:51;100141.97;;;20.93;62.47
71149;BME280;59072;42.144;25.200;2022-07-29T04:29:17;100135.28;;;21.09;62.38
71149;BME280;59072;42.144;25.200;2022-07-29T04:31:43;100139.81;;;21.43;62.40
71149;BME280;59072;42.144;25.200;2022-07-29T04:34:09;100146.22;;;21.52;61.28
71149;BME280;59072;42.144;25.200;2022-07-29T04:36:35;100130.22;;;21.26;62.02
71149;BME280;59072;42.144;25.200;2022-07-29T04:39:00;100137.69;;;21.64;60.85
71149;BME280;59072;42.144;25.200;2022-07-29T04:41:27;100145.97;;;21.73;60.78
71149;BME280;59072;42.144;25.200;2022-07-29T04:43:52;100139.81;;;21.86;61.28
71149;BME280;59072;42.144;25.200;2022-07-29T04:46:18;100147.38;;;21.89;60.78
71149;BME280;59072;42.144;25.200;2022-07-29T04:48:45;100150.84;;;21.95;60.42
71149;BME280;59072;42.144;25.200;2022-07-29T04:51:11;100138.13;;;21.90;60.59
71149;BME280;59072;42.144;25.200;2022-07-29T04:53:37;100117.75;;;21.93;60.80
71149;BME280;59072;42.144;25.200;2022-07-29T04:56:02;100144.53;;;22.18;60.12
71149;BME280;59072;42.144;25.200;2022-07-29T04:58:28;100146.81;;;22.30;59.05
71149;BME280;59072;42.144;25.200;2022-07-29T05:00:53;100115.81;;;22.31;58.36
71149;BME280;59072;42.144;25.200;2022-07-29T05:03:19;100154.16;;;22.49;58.24
71149;BME280;59072;42.144;25.200;2022-07-29T05:05:44;100163.63;;;22.32;59.20
71149;BME280;59072;42.144;25.200;2022-07-29T05:08:09;100158.44;;;22.36;59.01
71149;BME280;59072;42.144;25.200;2022-07-29T05:10:35;100148.13;;;22.52;58.58
71149;BME280;59072;42.144;25.200;2022-07-29T05:13:07;100176.22;;;22.94;58.97
71149;BME280;59072;42.144;25.200;2022-07-29T05:15:36;100142.97;;;22.83;57.50
71149;BME280;59072;42.144;25.200;2022-07-29T05:18:02;100172.47;;;23.22;57.13
71149;BME280;59072;42.144;25.200;2022-07-29T05:20:29;100175.50;;;23.35;57.39
71149;BME280;59072;42.144;25.200;2022-07-29T05:22:56;100161.91;;;23.49;56.79
71149;BME280;59072;42.144;25.200;2022-07-29T05:25:21;100172.28;;;23.60;56.63
71149;BME280;59072;42.144;25.200;2022-07-29T05:27:47;100173.38;;;23.73;57.03
71149;BME280;59072;42.144;25.200;2022-07-29T05:30:12;100165.84;;;23.84;56.83
71149;BME280;59072;42.144;25.200;2022-07-29T05:32:38;100157.78;;;23.79;57.64
71149;BME280;59072;42.144;25.200;2022-07-29T05:35:03;100169.69;;;23.83;57.83
71149;BME280;59072;42.144;25.200;2022-07-29T05:37:29;100149.47;;;23.98;57.60
71149;BME280;59072;42.144;25.200;2022-07-29T05:39:54;100172.94;;;24.21;56.13
71149;BME280;59072;42.144;25.200;2022-07-29T05:42:20;100160.09;;;24.22;56.51
71149;BME280;59072;42.144;25.200;2022-07-29T05:44:45;100160.47;;;24.29;56.36
71149;BME280;59072;42.144;25.200;2022-07-29T05:47:12;100164.06;;;24.38;56.37
71149;BME280;59072;42.144;25.200;2022-07-29T05:49:38;100187.69;;;24.43;55.89
71149;BME280;59072;42.144;25.200;2022-07-29T05:52:04;100183.78;;;24.58;55.90
71149;BME280;59072;42.144;25.200;2022-07-29T05:54:29;100167.09;;;24.51;56.38
71149;BME280;59072;42.144;25.200;2022-07-29T05:56:56;100171.84;;;24.67;56.81
71149;BME280;59072;42.144;25.200;2022-07-29T05:59:21;100170.78;;;24.77;55.79
71149;BME280;59072;42.144;25.200;2022-07-29T06:01:46;100159.44;;;24.84;55.37
71149;BME280;59072;42.144;25.200;2022-07-29T06:04:12;100180.63;;;25.18;55.46
71149;BME280;59072;42.144;25.200;2022-07-29T06:06:37;100183.38;;;25.18;54.62
71149;BME280;59072;42.144;25.200;2022-07-29T06:09:03;100192.66;;;25.40;55.29
71149;BME280;59072;42.144;25.200;2022-07-29T06:11:29;100195.44;;;25.57;54.14
71149;BME280;59072;42.144;25.200;2022-07-29T06:13:54;100189.84;;;25.71;53.16
71149;BME280;59072;42.144;25.200;2022-07-29T06:16:20;100191.31;;;25.69;53.69
71149;BME280;59072;42.144;25.200;2022-07-29T06:18:45;100181.19;;;25.78;52.18
71149;BME280;59072;42.144;25.200;2022-07-29T06:21:11;100191.81;;;25.88;53.45
71149;BME280;59072;42.144;25.200;2022-07-29T06:23:38;100197.00;;;25.98;52.94
71149;BME280;59072;42.144;25.200;2022-07-29T06:26:03;100187.03;;;25.94;52.52
71149;BME280;59072;42.144;25.200;2022-07-29T06:28:29;100190.56;;;25.94;53.24
71149;BME280;59072;42.144;25.200;2022-07-29T06:30:54;100177.50;;;25.82;52.50
71149;BME280;59072;42.144;25.200;2022-07-29T06:33:20;100186.25;;;25.93;52.77
71149;BME280;59072;42.144;25.200;2022-07-29T06:35:46;100180.44;;;25.95;52.56
71149;BME280;59072;42.144;25.200;2022-07-29T06:38:15;100190.75;;;26.15;52.78
71149;BME280;59072;42.144;25.200;2022-07-29T06:40:45;100192.69;;;26.23;51.29
71149;BME280;59072;42.144;25.200;2022-07-29T06:43:36;100179.84;;;26.24;51.42
71149;BME280;59072;42.144;25.200;2022-07-29T06:46:11;100185.00;;;26.25;51.00
71149;BME280;59072;42.144;25.200;2022-07-29T06:48:38;100155.53;;;26.31;51.63
71149;BME280;59072;42.144;25.200;2022-07-29T06:51:05;100173.88;;;26.57;51.06
71149;BME280;59072;42.144;25.200;2022-07-29T06:53:31;100166.47;;;26.66;48.65
71149;BME280;59072;42.144;25.200;2022-07-29T06:55:58;100186.25;;;26.72;50.89
71149;BME280;59072;42.144;25.200;2022-07-29T06:58:25;100164.03;;;26.82;48.83
71149;BME280;59072;42.144;25.200;2022-07-29T07:00:51;100180.47;;;26.73;48.95
71149;BME280;59072;42.144;25.200;2022-07-29T07:03:17;100169.16;;;26.92;48.62
71149;BME280;59072;42.144;25.200;2022-07-29T07:05:42;100180.69;;;27.06;47.64
71149;BME280;59072;42.144;25.200;2022-07-29T07:08:08;100161.31;;;27.20;48.39
71149;BME280;59072;42.144;25.200;2022-07-29T07:10:34;100153.34;;;27.45;48.02
71149;BME280;59072;42.144;25.200;2022-07-29T07:13:00;100173.00;;;27.77;46.23
71149;BME280;59072;42.144;25.200;2022-07-29T07:15:27;100155.69;;;27.85;46.27
71149;BME280;59072;42.144;25.200;2022-07-29T07:17:52;100160.34;;;27.93;45.00
71149;BME280;59072;42.144;25.200;2022-07-29T07:20:18;100157.88;;;28.00;44.05
71149;BME280;59072;42.144;25.200;2022-07-29T07:22:44;100162.59;;;28.33;43.85
71149;BME280;59072;42.144;25.200;2022-07-29T07:25:11;100152.97;;;28.27;43.92
71149;BME280;59072;42.144;25.200;2022-07-29T07:27:37;100152.34;;;28.42;42.18
71149;BME280;59072;42.144;25.200;2022-07-29T07:30:04;100157.91;;;28.55;43.88
71149;BME280;59072;42.144;25.200;2022-07-29T07:32:31;100163.91;;;28.69;43.75
71149;BME280;59072;42.144;25.200;2022-07-29T07:34:57;100169.34;;;29.02;42.06
71149;BME280;59072;42.144;25.200;2022-07-29T07:37:24;100150.97;;;29.28;40.67
71149;BME280;59072;42.144;25.200;2022-07-29T07:39:50;100167.25;;;29.33;40.41
71149;BME280;59072;42.144;25.200;2022-07-29T07:42:16;100158.75;;;29.25;40.71
71149;BME280;59072;42.144;25.200;2022-07-29T07:44:42;100135.53;;;29.23;39.95
71149;BME280;59072;42.144;25.200;2022-07-29T07:47:07;100145.47;;;29.52;39.56
71149;BME280;59072;42.144;25.200;2022-07-29T07:49:33;100155.53;;;29.73;39.07
71149;BME280;59072;42.144;25.200;2022-07-29T07:51:58;100151.19;;;29.59;38.65
71149;BME280;59072;42.144;25.200;2022-07-29T07:54:24;100164.81;;;29.80;37.60
71149;BME280;59072;42.144;25.200;2022-07-29T07:56:49;100146.81;;;29.83;39.61
71149;BME280;59072;42.144;25.200;2022-07-29T07:59:16;100153.56;;;29.98;37.91
71149;BME280;59072;42.144;25.200;2022-07-29T08:01:42;100139.97;;;29.77;38.26
71149;BME280;59072;42.144;25.200;2022-07-29T08:04:07;100163.97;;;30.04;36.99
71149;BME280;59072;42.144;25.200;2022-07-29T08:06:33;100153.19;;;29.99;38.95
71149;BME280;59072;42.144;25.200;2022-07-29T08:09:00;100134.09;;;30.31;38.44
71149;BME280;59072;42.144;25.200;2022-07-29T08:11:25;100154.69;;;30.66;35.68
71149;BME280;59072;42.144;25.200;2022-07-29T08:13:51;100132.47;;;30.58;36.51
71149;BME280;59072;42.144;25.200;2022-07-29T08:16:17;100146.16;;;30.55;36.50
71149;BME280;59072;42.144;25.200;2022-07-29T08:18:44;100147.75;;;30.56;35.45
71149;BME280;59072;42.144;25.200;2022-07-29T08:21:10;100140.31;;;30.72;36.20
71149;BME280;59072;42.144;25.200;2022-07-29T08:23:36;100121.97;;;30.92;35.99
71149;BME280;59072;42.144;25.200;2022-07-29T08:26:05;100130.59;;;31.07;34.76
71149;BME280;59072;42.144;25.200;2022-07-29T08:28:36;100136.00;;;31.19;35.56
71149;BME280;59072;42.144;25.200;2022-07-29T08:31:01;100147.72;;;31.32;34.38
71149;BME280;59072;42.144;25.200;2022-07-29T08:33:27;100140.09;;;31.09;35.43
71149;BME280;59072;42.144;25.200;2022-07-29T08:35:52;100143.63;;;31.26;33.90
71149;BME280;59072;42.144;25.200;2022-07-29T08:38:18;100141.22;;;31.40;33.34
71149;BME280;59072;42.144;25.200;2022-07-29T08:40:43;100136.88;;;31.39;34.35
71149;BME280;59072;42.144;25.200;2022-07-29T08:43:10;100137.31;;;31.57;34.51
71149;BME280;59072;42.144;25.200;2022-07-29T08:45:46;100134.28;;;31.46;33.30
71149;BME280;59072;42.144;25.200;2022-07-29T08:48:17;100139.63;;;31.39;32.06
71149;BME280;59072;42.144;25.200;2022-07-29T08:50:43;100141.31;;;31.28;33.40
71149;BME280;59072;42.144;25.200;2022-07-29T08:53:16;100135.09;;;31.31;33.28
71149;BME280;59072;42.144;25.200;2022-07-29T08:55:47;100126.66;;;31.75;33.45
71149;BME280;59072;42.144;25.200;2022-07-29T08:58:15;100128.84;;;31.66;33.33
71149;BME280;59072;42.144;25.200;2022-07-29T09:00:45;100121.22;;;31.43;34.57
71149;BME280;59072;42.144;25.200;2022-07-29T09:03:16;100112.53;;;31.76;35.76
71149;BME280;59072;42.144;25.200;2022-07-29T09:05:44;100111.63;;;32.08;33.44
71149;BME280;59072;42.144;25.200;2022-07-29T09:08:12;100103.88;;;32.36;33.48
71149;BME280;59072;42.144;25.200;2022-07-29T09:10:38;100077.66;;;32.03;33.85
71149;BME280;59072;42.144;25.200;2022-07-29T09:13:04;100097.94;;;32.34;32.67
71149;BME280;59072;42.144;25.200;2022-07-29T09:15:30;100099.53;;;32.35;32.71
71149;BME280;59072;42.144;25.200;2022-07-29T09:17:55;100097.47;;;32.52;32.36
71149;BME280;59072;42.144;25.200;2022-07-29T09:20:23;100096.09;;;32.85;32.57
71149;BME280;59072;42.144;25.200;2022-07-29T09:22:49;100102.47;;;33.12;32.39
71149;BME280;59072;42.144;25.200;2022-07-29T09:28:09;100084.75;;;32.67;32.51
71149;BME280;59072;42.144;25.200;2022-07-29T09:30:37;100084.69;;;32.86;32.04
71149;BME280;59072;42.144;25.200;2022-07-29T09:33:14;100085.59;;;32.94;32.05
71149;BME280;59072;42.144;25.200;2022-07-29T09:35:40;100072.09;;;32.89;30.92
71149;BME280;59072;42.144;25.200;2022-07-29T09:38:13;100084.63;;;32.82;31.58
71149;BME280;59072;42.144;25.200;2022-07-29T09:40:39;100088.03;;;32.99;32.05
71149;BME280;59072;42.144;25.200;2022-07-29T09:43:12;100063.78;;;33.12;32.04
71149;BME280;59072;42.144;25.200;2022-07-29T09:45:38;100066.25;;;33.74;31.49
71149;BME280;59072;42.144;25.200;2022-07-29T09:48:24;100082.97;;;33.85;29.38
71149;BME280;59072;42.144;25.200;2022-07-29T09:50:50;100089.06;;;33.97;29.68
71149;BME280;59072;42.144;25.200;2022-07-29T09:53:36;100075.38;;;34.12;29.94
71149;BME280;59072;42.144;25.200;2022-07-29T09:56:03;100071.53;;;34.16;29.78
71149;BME280;59072;42.144;25.200;2022-07-29T09:58:29;100071.69;;;34.34;29.83
71149;BME280;59072;42.144;25.200;2022-07-29T10:00:55;100059.06;;;34.37;28.98
71149;BME280;59072;42.144;25.200;2022-07-29T10:03:22;100061.56;;;34.53;29.84
71149;BME280;59072;42.144;25.200;2022-07-29T10:06:05;100070.44;;;34.69;28.27
71149;BME280;59072;42.144;25.200;2022-07-29T10:08:31;100062.22;;;34.76;29.27
71149;BME280;59072;42.144;25.200;2022-07-29T10:11:10;100048.69;;;34.68;27.81
71149;BME280;59072;42.144;25.200;2022-07-29T10:13:36;100043.38;;;34.52;29.69
71149;BME280;59072;42.144;25.200;2022-07-29T10:16:02;100056.72;;;34.80;27.84
71149;BME280;59072;42.144;25.200;2022-07-29T10:18:28;100050.03;;;34.92;27.04
71149;BME280;59072;42.144;25.200;2022-07-29T10:20:54;100048.94;;;35.04;28.50
71149;BME280;59072;42.144;25.200;2022-07-29T10:23:20;100049.09;;;35.21;27.78
71149;BME280;59072;42.144;25.200;2022-07-29T10:25:45;100032.56;;;35.39;26.84
71149;BME280;59072;42.144;25.200;2022-07-29T10:28:11;100032.47;;;35.29;26.68
71149;BME280;59072;42.144;25.200;2022-07-29T10:30:37;100052.66;;;35.22;27.70
71149;BME280;59072;42.144;25.200;2022-07-29T10:38:42;100036.94;;;35.44;26.57
71149;BME280;59072;42.144;25.200;2022-07-29T10:43:58;100031.19;;;35.96;26.22
71149;BME280;59072;42.144;25.200;2022-07-29T10:46:25;100016.50;;;35.81;24.81
71149;BME280;59072;42.144;25.200;2022-07-29T10:49:14;100018.53;;;36.09;26.84
71149;BME280;59072;42.144;25.200;2022-07-29T11:05:16;100012.25;;;36.41;26.33
71149;BME280;59072;42.144;25.200;2022-07-29T11:10:45;99990.41;;;36.61;24.29
71149;BME280;59072;42.144;25.200;2022-07-29T11:13:10;99993.59;;;36.81;24.05
71149;BME280;59072;42.144;25.200;2022-07-29T11:15:55;99997.91;;;37.22;24.35
71149;BME280;59072;42.144;25.200;2022-07-29T11:18:21;99996.34;;;37.03;24.24
71149;BME280;59072;42.144;25.200;2022-07-29T11:20:49;99984.09;;;36.28;24.30
71149;BME280;59072;42.144;25.200;2022-07-29T11:23:29;99993.59;;;36.49;25.45
71149;BME280;59072;42.144;25.200;2022-07-29T11:26:17;99990.03;;;36.45;24.20
71149;BME280;59072;42.144;25.200;2022-07-29T11:29:15;99992.03;;;36.73;25.11
71149;BME280;59072;42.144;25.200;2022-07-29T11:31:49;99983.25;;;36.96;23.29
71149;BME280;59072;42.144;25.200;2022-07-29T11:39:40;99967.97;;;37.54;24.34
71149;BME280;59072;42.144;25.200;2022-07-29T11:45:00;99978.38;;;37.36;22.95
71149;BME280;59072;42.144;25.200;2022-07-29T11:47:27;99970.13;;;37.07;22.97
71149;BME280;59072;42.144;25.200;2022-07-29T11:49:55;99973.66;;;37.26;23.18
71149;BME280;59072;42.144;25.200;2022-07-29T11:52:22;99965.56;;;37.56;22.84
71149;BME280;59072;42.144;25.200;2022-07-29T11:54:49;99961.59;;;37.54;23.48
71149;BME280;59072;42.144;25.200;2022-07-29T11:57:15;99960.00;;;37.56;23.20
71149;BME280;59072;42.144;25.200;2022-07-29T11:59:43;99948.50;;;37.54;23.35
71149;BME280;59072;42.144;25.200;2022-07-29T12:02:11;99950.50;;;37.47;24.28
71149;BME280;59072;42.144;25.200;2022-07-29T12:07:15;99952.44;;;37.57;22.35
71149;BME280;59072;42.144;25.200;2022-07-29T12:09:49;99943.22;;;37.74;21.28
71149;BME280;59072;42.144;25.200;2022-07-29T12:12:16;99951.41;;;37.96;22.24
71149;BME280;59072;42.144;25.200;2022-07-29T12:14:42;99945.09;;;37.88;21.65
71149;BME280;59072;42.144;25.200;2022-07-29T12:17:25;99938.16;;;38.18;21.75
71149;BME280;59072;42.144;25.200;2022-07-29T12:19:58;99936.47;;;38.31;21.74
71149;BME280;59072;42.144;25.200;2022-07-29T12:22:32;99935.47;;;38.04;21.94
71149;BME280;59072;42.144;25.200;2022-07-29T12:25:10;99941.66;;;38.74;21.96
71149;BME280;59072;42.144;25.200;2022-07-29T12:27:37;99931.31;;;38.71;21.60
71149;BME280;59072;42.144;25.200;2022-07-29T12:30:06;99927.03;;;39.01;22.76
71149;BME280;59072;42.144;25.200;2022-07-29T12:32:36;99935.97;;;38.82;20.82
71149;BME280;59072;42.144;25.200;2022-07-29T12:35:10;99947.13;;;38.82;21.96
71149;BME280;59072;42.144;25.200;2022-07-29T12:37:39;99916.97;;;38.31;21.01
71149;BME280;59072;42.144;25.200;2022-07-29T12:40:06;99924.00;;;38.85;22.12
71149;BME280;59072;42.144;25.200;2022-07-29T12:42:32;99923.69;;;38.75;21.70
71149;BME280;59072;42.144;25.200;2022-07-29T12:44:59;99914.72;;;38.95;21.76
71149;BME280;59072;42.144;25.200;2022-07-29T12:47:25;99922.91;;;38.75;21.14
71149;BME280;59072;42.144;25.200;2022-07-29T12:49:51;99889.16;;;38.66;21.18
71149;BME280;59072;42.144;25.200;2022-07-29T12:52:33;99903.66;;;38.50;21.40
71149;BME280;59072;42.144;25.200;2022-07-29T12:55:00;99909.78;;;38.34;21.61
71149;BME280;59072;42.144;25.200;2022-07-29T12:57:26;99901.94;;;38.22;22.30
71149;BME280;59072;42.144;25.200;2022-07-29T13:00:06;99896.84;;;38.13;21.98
71149;BME280;59072;42.144;25.200;2022-07-29T13:02:39;99900.81;;;38.57;21.42
71149;BME280;59072;42.144;25.200;2022-07-29T13:05:05;99889.63;;;38.61;21.58
71149;BME280;59072;42.144;25.200;2022-07-29T13:07:32;99895.06;;;39.09;21.38
71149;BME280;59072;42.144;25.200;2022-07-29T13:10:14;99899.91;;;39.05;21.04
71149;BME280;59072;42.144;25.200;2022-07-29T13:13:09;99901.78;;;38.77;21.30
71149;BME280;59072;42.144;25.200;2022-07-29T13:15:45;99887.81;;;38.81;21.18
71149;BME280;59072;42.144;25.200;2022-07-29T13:18:30;99893.22;;;37.56;21.88
71149;BME280;59072;42.144;25.200;2022-07-29T13:21:10;99885.50;;;37.86;22.38
71149;BME280;59072;42.144;25.200;2022-07-29T13:23:36;99890.63;;;38.77;21.56
71149;BME280;59072;42.144;25.200;2022-07-29T13:26:09;99875.53;;;37.88;22.60
71149;BME280;59072;42.144;25.200;2022-07-29T13:28:36;99877.44;;;37.98;22.07
71149;BME280;59072;42.144;25.200;2022-07-29T13:31:02;99876.78;;;38.29;22.59
71149;BME280;59072;42.144;25.200;2022-07-29T13:33:27;99880.81;;;39.00;21.53
71149;BME280;59072;42.144;25.200;2022-07-29T13:35:53;99874.25;;;39.72;21.19
71149;BME280;59072;42.144;25.200;2022-07-29T13:38:18;99862.47;;;39.84;21.10
71149;BME280;59072;42.144;25.200;2022-07-29T13:40:44;99873.75;;;39.23;22.01